Time;durP1;ratioP1;P1;durP2;ratioP2;P2;SDS_P1;SDS_P2;PMS_P1;PMS_P2;Temp;Humidity;BMP_temperature;BMP_pressure;BME280_temperature;BME280_humidity;BME280_pressure;Samples;Min_cycle;Max_cycle;Signal;HPM_P1;HPM_P2
2022/05/25 00:00:36;;;;;;;2.03;1.50;;;;;;;11.94;100.00;101141.81;5094987;28;20016;-71
2022/05/25 00:03:01;;;;;;;2.90;1.50;;;;;;;11.96;100.00;101149.75;5094156;28;20035;-71
2022/05/25 00:05:27;;;;;;;4.03;1.60;;;;;;;11.93;100.00;101145.28;5091220;28;20032;-71
2022/05/25 00:07:52;;;;;;;4.18;1.42;;;;;;;11.94;100.00;101151.47;5095563;28;20467;-71
2022/05/25 00:10:18;;;;;;;3.80;1.63;;;;;;;11.89;100.00;101140.81;5101195;28;20197;-72
2022/05/25 00:12:43;;;;;;;4.70;1.83;;;;;;;11.86;100.00;101146.06;5097396;28;20046;-71
2022/05/25 00:15:11;;;;;;;5.63;1.55;;;;;;;11.91;100.00;101151.38;5093998;28;20020;-71
2022/05/25 00:17:36;;;;;;;9.30;2.13;;;;;;;11.87;100.00;101153.09;5097564;28;21662;-71
2022/05/25 00:20:04;;;;;;;5.00;1.80;;;;;;;11.84;100.00;101154.78;5092032;28;20031;-71
2022/05/25 00:22:48;;;;;;;7.55;1.60;;;;;;;11.82;100.00;101154.78;5091308;28;20035;-71
2022/05/25 00:25:21;;;;;;;5.82;1.20;;;;;;;11.78;100.00;101156.47;5094128;28;20063;-71
2022/05/25 00:27:47;;;;;;;6.25;1.35;;;;;;;11.78;100.00;101156.47;5091889;28;20032;-72
2022/05/25 00:30:13;;;;;;;3.25;1.52;;;;;;;11.77;100.00;101157.34;5102649;28;20105;-72
2022/05/25 00:32:40;;;;;;;4.95;1.42;;;;;;;11.72;100.00;101160.75;5071343;28;20480;-71
2022/05/25 00:35:06;;;;;;;5.50;1.77;;;;;;;11.74;100.00;101159.91;5090462;28;20075;-72
2022/05/25 00:37:31;;;;;;;7.53;1.52;;;;;;;11.68;100.00;101157.19;5093554;28;20107;-72
2022/05/25 00:39:57;;;;;;;8.25;1.80;;;;;;;11.72;100.00;101150.19;5091030;28;20115;-72
2022/05/25 00:42:22;;;;;;;2.72;1.58;;;;;;;11.71;100.00;101159.88;5092130;28;20452;-72
2022/05/25 00:44:48;;;;;;;3.83;1.30;;;;;;;11.72;100.00;101159.00;5093526;28;20058;-71
2022/05/25 00:47:20;;;;;;;6.65;1.95;;;;;;;11.67;100.00;101165.94;5090768;28;20040;-72
2022/05/25 00:49:46;;;;;;;6.20;1.60;;;;;;;11.71;100.00;101165.13;5091405;28;20028;-72
2022/05/25 00:52:13;;;;;;;4.68;1.80;;;;;;;11.71;100.00;101172.19;5090508;28;20472;-72
2022/05/25 00:54:44;;;;;;;6.07;1.90;;;;;;;11.67;100.00;101173.84;5093454;28;20023;-71
2022/05/25 00:57:15;;;;;;;6.88;1.85;;;;;;;11.59;100.00;101176.34;5090186;28;20055;-71
2022/05/25 00:59:51;;;;;;;6.20;1.90;;;;;;;11.55;100.00;101173.66;5095443;28;20034;-71
2022/05/25 01:02:17;;;;;;;5.97;2.03;;;;;;;11.59;100.00;101175.47;5089144;28;20078;-71
2022/05/25 01:04:42;;;;;;;11.45;2.13;;;;;;;11.61;100.00;101179.00;5094901;28;20103;-71
2022/05/25 01:07:34;;;;;;;6.70;2.22;;;;;;;11.65;100.00;101180.84;5089459;28;20035;-71
2022/05/25 01:10:08;;;;;;;5.60;1.52;;;;;;;11.68;100.00;101178.28;5093163;28;20020;-71
2022/05/25 01:13:01;;;;;;;9.00;1.98;;;;;;;11.68;100.00;101175.66;5091880;28;20028;-71
2022/05/25 01:15:57;;;;;;;4.15;1.80;;;;;;;11.67;100.00;101178.25;5091044;28;20028;-71
2022/05/25 01:18:37;;;;;;;13.02;2.67;;;;;;;11.69;100.00;101187.94;5092627;28;20024;-71
2022/05/25 01:21:16;;;;;;;6.80;2.85;;;;;;;11.62;100.00;101176.44;5092713;28;20020;-71
2022/05/25 01:23:47;;;;;;;7.10;2.40;;;;;;;11.61;100.00;101179.00;5092724;28;22249;-72
2022/05/25 01:26:15;;;;;;;6.50;2.20;;;;;;;11.55;100.00;101176.28;5091816;28;20121;-72
2022/05/25 01:29:02;;;;;;;5.28;2.88;;;;;;;11.53;100.00;101175.34;5097356;28;20113;-72
2022/05/25 01:31:51;;;;;;;9.98;2.80;;;;;;;11.52;100.00;101178.88;5088951;28;20525;-72
2022/05/25 01:34:51;;;;;;;9.57;3.45;;;;;;;11.46;100.00;101182.25;5089020;28;20027;-71
2022/05/25 01:37:32;;;;;;;9.88;3.25;;;;;;;11.43;100.00;101183.09;5088875;28;20090;-71
2022/05/25 01:40:17;;;;;;;11.43;4.15;;;;;;;11.40;100.00;101185.66;5094193;28;20081;-72
2022/05/25 01:42:49;;;;;;;8.40;4.20;;;;;;;11.48;100.00;101186.69;5088263;28;20008;-72
2022/05/25 01:45:16;;;;;;;7.03;4.28;;;;;;;11.45;100.00;101189.28;5093659;28;20019;-73
2022/05/25 01:47:46;;;;;;;11.05;4.78;;;;;;;11.41;100.00;101187.47;5089218;28;20514;-72
2022/05/25 01:50:31;;;;;;;13.68;5.88;;;;;;;11.50;100.00;101191.13;5094865;28;20028;-72
2022/05/25 01:53:01;;;;;;;17.35;6.60;;;;;;;11.48;100.00;101191.97;5090916;28;20101;-72
2022/05/25 01:55:30;;;;;;;16.02;5.38;;;;;;;11.45;100.00;101193.69;5089268;28;20541;-72
2022/05/25 01:58:01;;;;;;;10.35;5.57;;;;;;;11.51;100.00;101198.16;5103025;28;20020;-72
2022/05/25 02:00:42;;;;;;;11.98;5.82;;;;;;;11.44;100.00;101198.03;5089392;28;20032;-72
2022/05/25 02:06:22;;;;;;;16.38;6.80;;;;;;;11.42;100.00;101199.78;5097649;28;20035;-72
2022/05/25 02:09:09;;;;;;;;;;;;;;;11.34;100.00;101206.66;5096267;28;20028;-72
2022/05/25 02:11:42;;;;;;;18.20;8.18;;;;;;;11.30;100.00;101199.56;5100220;28;19924;-72
2022/05/25 02:14:25;;;;;;;20.02;8.82;;;;;;;11.30;100.00;101194.28;5098416;28;20024;-72
2022/05/25 02:17:10;;;;;;;;;;;;;;;11.29;100.00;101197.75;5107816;28;20039;-72
2022/05/25 02:19:35;;;;;;;23.48;8.60;;;;;;;11.36;100.00;101197.00;5096515;28;19920;-72
2022/05/25 02:22:29;;;;;;;20.17;8.95;;;;;;;11.27;100.00;101195.09;5094126;28;20031;-72
2022/05/25 02:25:02;;;;;;;17.80;9.02;;;;;;;11.29;100.00;101208.31;5102783;28;20035;-72
2022/05/25 02:27:49;;;;;;;17.70;9.48;;;;;;;11.20;100.00;101200.22;5106483;28;20034;-72
2022/05/25 02:30:23;;;;;;;17.80;9.40;;;;;;;11.18;100.00;101199.28;5114662;28;20046;-72
2022/05/25 02:32:57;;;;;;;14.35;9.55;;;;;;;11.17;100.00;101208.94;5085033;28;20052;-72
2022/05/25 02:35:24;;;;;;;17.58;8.95;;;;;;;11.17;100.00;101208.06;5106176;28;20052;-72
2022/05/25 02:37:52;;;;;;;25.75;10.65;;;;;;;11.17;100.00;101208.06;5092280;28;20495;-71
2022/05/25 02:40:18;;;;;;;16.85;10.43;;;;;;;11.14;100.00;101204.50;5098362;28;20024;-71
2022/05/25 02:42:44;;;;;;;20.98;10.95;;;;;;;11.12;100.00;101206.22;5099926;28;20028;-71
2022/05/25 02:45:11;;;;;;;21.27;10.82;;;;;;;11.17;100.00;101198.41;5102931;28;20471;-72
2022/05/25 02:47:36;;;;;;;21.25;10.10;;;;;;;11.17;100.00;101205.44;5093046;28;20052;-71
2022/05/25 02:50:02;;;;;;;18.60;11.55;;;;;;;11.08;100.00;101199.13;5098381;28;20431;-71
2022/05/25 02:52:27;;;;;;;24.88;11.93;;;;;;;11.08;100.00;101207.03;5098699;28;20121;-71
2022/05/25 02:54:53;;;;;;;19.80;11.25;;;;;;;11.05;100.00;101204.31;5104654;28;20025;-71
2022/05/25 02:57:18;;;;;;;22.75;12.50;;;;;;;11.08;100.00;101207.03;5098048;28;20088;-71
2022/05/25 02:59:44;;;;;;;20.20;12.00;;;;;;;11.08;100.00;101209.66;5093598;28;20600;-72
2022/05/25 03:02:09;;;;;;;23.67;11.57;;;;;;;11.11;100.00;101208.84;5095493;28;20383;-72
2022/05/25 03:04:37;;;;;;;24.98;13.25;;;;;;;11.11;100.00;101208.84;5109156;28;20020;-72
2022/05/25 03:07:03;;;;;;;25.63;12.52;;;;;;;11.08;100.00;101220.19;5107492;28;20042;-71
2022/05/25 03:09:29;;;;;;;22.42;12.00;;;;;;;11.06;100.00;101223.66;5095102;28;20060;-72
2022/05/25 03:11:54;;;;;;;19.50;11.45;;;;;;;10.99;100.00;101234.88;5101284;28;20059;-72
2022/05/25 03:14:20;;;;;;;23.45;12.07;;;;;;;10.95;100.00;101233.97;5107948;28;20111;-71
2022/05/25 03:16:45;;;;;;;31.15;13.05;;;;;;;10.96;100.00;101230.47;5096649;28;20032;-72
2022/05/25 03:19:10;;;;;;;26.38;12.88;;;;;;;10.96;100.00;101241.00;5105304;28;20035;-72
2022/05/25 03:21:36;;;;;;;27.17;14.07;;;;;;;10.94;100.00;101234.81;5102248;28;20023;-71
2022/05/25 03:24:01;;;;;;;24.05;13.90;;;;;;;10.98;100.00;101239.28;5096280;28;20489;-72
2022/05/25 03:26:26;;;;;;;24.02;13.00;;;;;;;11.03;100.00;101237.63;5094993;28;20052;-72
2022/05/25 03:28:52;;;;;;;23.80;13.00;;;;;;;11.03;100.00;101244.63;5096874;28;20032;-72
2022/05/25 03:31:17;;;;;;;23.52;13.43;;;;;;;11.05;100.00;101245.56;5101819;28;20036;-71
2022/05/25 03:33:43;;;;;;;21.85;13.65;;;;;;;11.00;100.00;101245.47;5097639;28;20070;-71
2022/05/25 03:36:08;;;;;;;22.77;13.45;;;;;;;10.96;100.00;101241.88;5096736;28;20062;-71
2022/05/25 03:38:33;;;;;;;31.45;14.02;;;;;;;11.00;100.00;101248.13;5102533;27;20115;-71
2022/05/25 03:41:00;;;;;;;21.98;12.77;;;;;;;11.09;100.00;101244.78;5102495;28;20039;-71
2022/05/25 03:43:38;;;;;;;21.63;12.57;;;;;;;11.10;100.00;101244.81;5104759;28;20084;-71
2022/05/25 03:46:04;;;;;;;20.75;12.27;;;;;;;11.11;100.00;101246.59;5094803;28;20081;-72
2022/05/25 03:48:29;;;;;;;23.50;12.45;;;;;;;11.13;100.00;101244.84;5095078;28;20064;-72
2022/05/25 03:50:54;;;;;;;27.55;13.48;;;;;;;11.12;100.00;101251.00;5093665;28;20070;-72
2022/05/25 03:53:20;;;;;;;21.65;12.55;;;;;;;11.17;100.00;101244.94;5092582;28;20085;-71
2022/05/25 03:55:47;;;;;;;30.35;12.50;;;;;;;11.19;100.00;101249.38;5094723;28;20035;-72
2022/05/25 03:58:13;;;;;;;21.05;12.15;;;;;;;11.20;100.00;101252.91;5101730;28;20076;-72
2022/05/25 04:00:39;;;;;;;24.92;12.43;;;;;;;11.19;100.00;101243.22;5107987;28;20036;-72
2022/05/25 04:03:04;;;;;;;21.08;12.40;;;;;;;11.23;100.00;101245.97;5093647;28;20024;-72
2022/05/25 04:05:32;;;;;;;21.55;11.57;;;;;;;11.27;100.00;101246.88;5093014;28;20157;-71
2022/05/25 04:07:58;;;;;;;23.15;12.60;;;;;;;11.27;100.00;101246.88;5094841;28;20031;-72
2022/05/25 04:10:25;;;;;;;22.83;12.55;;;;;;;11.23;100.00;101245.97;5094284;28;20053;-72
2022/05/25 04:12:51;;;;;;;21.80;11.88;;;;;;;11.22;100.00;101253.84;5095825;28;20028;-72
2022/05/25 04:15:20;;;;;;;20.98;11.90;;;;;;;11.27;100.00;101254.78;5110259;28;20027;-72
2022/05/25 04:17:45;;;;;;;21.67;12.38;;;;;;;11.38;100.00;101253.28;5095522;28;20046;-72
2022/05/25 04:20:12;;;;;;;22.58;13.65;;;;;;;11.36;100.00;101247.06;5100996;28;20471;-71
2022/05/25 04:22:37;;;;;;;24.83;12.88;;;;;;;11.47;100.00;101260.47;5097618;28;20027;-71
2022/05/25 04:25:07;;;;;;;22.77;12.68;;;;;;;11.56;100.00;101259.78;5094806;28;20038;-71
2022/05/25 04:27:33;;;;;;;27.45;13.05;;;;;;;11.55;100.00;101252.72;5103763;28;20414;-72
2022/05/25 04:29:59;;;;;;;27.83;13.77;;;;;;;11.57;100.00;101251.88;5086469;28;20036;-71
2022/05/25 04:32:24;;;;;;;24.42;13.23;;;;;;;11.55;100.00;101258.00;5092490;28;20074;-72
2022/05/25 04:34:49;;;;;;;28.00;13.85;;;;;;;11.51;100.00;101253.50;5094669;28;20031;-72
2022/05/25 04:39:58;;;;;;;;;;;;;;;11.67;100.00;101257.34;5093707;28;20031;-71
2022/05/25 04:42:28;;;;;;;22.40;13.03;;;;;;;11.66;100.00;101250.28;5091763;28;19916;-71
2022/05/25 04:45:00;;;;;;;27.20;14.52;;;;;;;11.60;100.00;101257.22;5092259;28;20278;-72
2022/05/25 04:47:27;;;;;;;26.63;13.65;;;;;;;11.66;100.00;101253.78;5086497;28;20118;-72
2022/05/25 04:49:53;;;;;;;32.05;14.32;;;;;;;11.70;100.00;101242.44;5087370;28;20162;-72
2022/05/25 04:52:18;;;;;;;29.48;14.43;;;;;;;11.72;100.00;101242.47;5097988;28;20450;-72
2022/05/25 04:54:43;;;;;;;27.48;13.75;;;;;;;11.75;100.00;101239.91;5104321;28;20028;-71
2022/05/25 04:57:20;;;;;;;21.73;14.13;;;;;;;11.78;100.00;101237.31;5093822;28;20423;-72
2022/05/25 04:59:54;;;;;;;29.15;13.95;;;;;;;11.79;100.00;101242.63;5092887;28;20468;-71
2022/05/25 05:02:20;;;;;;;24.00;14.73;;;;;;;11.88;100.00;101243.63;5092075;28;20037;-72
2022/05/25 05:04:46;;;;;;;32.53;13.35;;;;;;;11.90;100.00;101229.63;5089473;28;20036;-72
2022/05/25 05:07:13;;;;;;;28.70;13.18;;;;;;;11.94;100.00;101252.59;5098204;28;20122;-72
2022/05/25 05:09:41;;;;;;;24.95;13.32;;;;;;;11.97;100.00;101247.34;5099442;28;20043;-72
2022/05/25 05:12:07;;;;;;;28.52;15.15;;;;;;;12.04;100.00;101245.72;5091126;28;20119;-72
2022/05/25 05:14:33;;;;;;;29.50;14.98;;;;;;;12.10;100.00;101243.19;5092199;28;20039;-70
2022/05/25 05:17:01;;;;;;;33.13;15.77;;;;;;;12.06;100.00;101245.72;5091465;28;20012;-69
2022/05/25 05:19:27;;;;;;;26.05;15.07;;;;;;;12.09;100.00;101254.59;5092575;28;20118;-73
2022/05/25 05:22:00;;;;;;;27.52;15.15;;;;;;;12.11;100.00;101255.53;5091692;28;20097;-74
2022/05/25 05:24:27;;;;;;;26.60;15.32;;;;;;;12.08;100.00;101251.94;5086260;28;20024;-73
2022/05/25 05:26:54;;;;;;;25.73;15.50;;;;;;;12.23;100.00;101256.56;5089836;28;20027;-72
2022/05/25 05:29:19;;;;;;;33.05;16.15;;;;;;;12.16;100.00;101252.06;5092173;28;20455;-74
2022/05/25 05:31:45;;;;;;;30.33;15.75;;;;;;;12.10;100.00;101248.47;5089088;28;20073;-72
2022/05/25 05:34:10;;;;;;;35.55;16.55;;;;;;;12.21;100.00;101251.28;5085302;28;20067;-72
2022/05/25 05:36:59;;;;;;;28.75;16.58;;;;;;;12.31;100.00;101260.22;5084829;28;20028;-72
2022/05/25 05:39:28;;;;;;;35.60;17.45;;;;;;;12.32;100.00;101260.25;5082408;28;20027;-72
2022/05/25 05:41:59;;;;;;;31.27;17.35;;;;;;;12.34;100.00;101257.63;5087400;28;20016;-72
2022/05/25 05:44:30;;;;;;;29.63;17.38;;;;;;;12.41;100.00;101262.16;5086444;28;20496;-72
2022/05/25 05:46:58;;;;;;;30.17;16.70;;;;;;;12.42;100.00;101256.00;5098670;28;20526;-72
2022/05/25 05:49:24;;;;;;;30.92;18.23;;;;;;;12.50;100.00;101261.41;5092842;28;20024;-72
2022/05/25 05:51:50;;;;;;;27.42;16.10;;;;;;;12.50;100.00;101269.31;5094737;28;20028;-74
2022/05/25 05:54:17;;;;;;;31.20;18.65;;;;;;;12.54;100.00;101271.13;5093530;28;20020;-72
2022/05/25 05:56:43;;;;;;;29.13;18.00;;;;;;;12.61;100.00;101264.19;5094810;28;20036;-73
2022/05/25 05:59:09;;;;;;;31.00;17.90;;;;;;;12.61;100.00;101275.63;5098783;28;20027;-71
2022/05/25 06:01:34;;;;;;;30.92;18.70;;;;;;;12.64;100.00;101277.44;5093512;28;20035;-73
2022/05/25 06:04:00;;;;;;;30.02;16.88;;;;;;;12.60;100.00;101276.53;5101247;28;20053;-70
2022/05/25 06:06:25;;;;;;;36.70;17.60;;;;;;;12.70;100.00;101277.53;5094645;28;20047;-71
2022/05/25 06:08:52;;;;;;;30.15;16.42;;;;;;;12.75;100.00;101281.16;5095755;28;20035;-71
2022/05/25 06:11:19;;;;;;;32.08;17.75;;;;;;;12.85;100.00;101287.44;5095382;28;20513;-71
2022/05/25 06:13:44;;;;;;;29.48;17.65;;;;;;;12.84;100.00;101290.06;5093350;28;21302;-71
2022/05/25 06:21:37;;;;;;;;;;;;;;;12.98;100.00;101288.50;5096008;28;20129;-70
2022/05/25 06:24:03;;;;;;;31.45;18.63;;;;;;;12.94;100.00;101289.31;5094220;28;20361;-71
2022/05/25 06:26:30;;;;;;;28.98;17.75;;;;;;;12.91;100.00;101287.50;5094142;28;20036;-70
2022/05/25 06:28:56;;;;;;;26.77;18.17;;;;;;;12.94;100.00;101294.59;5098643;28;20019;-71
2022/05/25 06:31:22;;;;;;;31.80;18.55;;;;;;;13.05;100.00;101295.66;5116319;28;20364;-69
2022/05/25 06:33:48;;;;;;;33.70;18.17;;;;;;;13.13;100.00;101298.38;5099960;28;20019;-69
2022/05/25 06:36:28;;;;;;;34.25;19.17;;;;;;;13.16;100.00;101299.31;5102556;28;20039;-70
2022/05/25 06:38:54;;;;;;;27.00;17.77;;;;;;;13.18;100.00;101298.47;5093699;28;20035;-69
2022/05/25 06:41:20;;;;;;;31.55;18.83;;;;;;;13.19;100.00;101308.16;5095651;28;20045;-70
2022/05/25 06:43:45;;;;;;;29.58;17.33;;;;;;;13.21;100.00;101307.31;5100874;28;20102;-70
2022/05/25 06:46:12;;;;;;;29.92;18.17;;;;;;;13.27;100.00;101311.78;5106355;28;20047;-72
2022/05/25 06:48:38;;;;;;;29.88;19.17;;;;;;;13.30;100.00;101317.13;5093838;28;20113;-71
2022/05/25 06:51:10;;;;;;;26.98;18.98;;;;;;;13.43;100.00;101311.16;5094994;28;20027;-70
2022/05/25 06:53:36;;;;;;;32.92;17.60;;;;;;;13.47;100.00;101312.97;5092938;28;20024;-71
2022/05/25 06:56:01;;;;;;;31.42;17.73;;;;;;;13.63;100.00;101316.69;5107216;28;20523;-71
2022/05/25 06:58:26;;;;;;;28.10;16.55;;;;;;;13.69;100.00;101317.59;5111196;28;20080;-71
2022/05/25 07:00:52;;;;;;;24.80;15.68;;;;;;;13.55;100.00;101314.81;5115867;28;20106;-70
2022/05/25 07:03:17;;;;;;;27.08;16.13;;;;;;;13.61;100.00;101317.53;5115948;28;20028;-71
2022/05/25 07:05:42;;;;;;;21.00;16.05;;;;;;;13.51;100.00;101315.63;5114667;28;20534;-70
2022/05/25 07:08:07;;;;;;;25.67;15.73;;;;;;;13.52;100.00;101322.69;5098069;28;20034;-70
2022/05/25 07:10:33;;;;;;;21.20;16.25;;;;;;;13.51;100.00;101321.81;5098377;28;20428;-71
2022/05/25 07:12:58;;;;;;;19.83;16.10;;;;;;;13.57;100.00;101310.44;5092659;28;20027;-69
2022/05/25 07:15:23;;;;;;;25.45;15.63;;;;;;;13.70;100.00;101325.56;5095086;28;20051;-70
2022/05/25 07:17:49;;;;;;;25.70;15.68;;;;;;;13.91;100.00;101326.69;5095140;28;20375;-68
2022/05/25 07:20:14;;;;;;;26.05;16.27;;;;;;;13.98;100.00;101331.16;5095066;28;20081;-70
2022/05/25 07:22:40;;;;;;;20.33;14.77;;;;;;;13.94;100.00;101332.00;5094965;28;20024;-70
2022/05/25 07:25:05;;;;;;;18.90;13.73;;;;;;;13.91;100.00;101334.63;5094790;28;20031;-71
2022/05/25 07:27:31;;;;;;;20.92;14.73;;;;;;;13.80;100.00;101331.84;5100260;28;20102;-71
2022/05/25 07:29:56;;;;;;;25.40;15.82;;;;;;;13.81;100.00;101325.69;5094719;28;20437;-71
2022/05/25 07:32:22;;;;;;;25.20;16.05;;;;;;;13.76;100.00;101336.22;5099355;28;20024;-71
2022/05/25 07:35:09;;;;;;;21.83;14.43;;;;;;;13.77;100.00;101345.91;5115228;28;20023;-70
2022/05/25 07:37:38;;;;;;;16.83;12.65;;;;;;;13.97;100.00;101343.50;5107844;28;20032;-73
2022/05/25 07:40:31;;;;;;;15.85;13.63;;;;;;;14.06;100.00;101347.13;5092274;28;20119;-72
2022/05/25 07:43:00;;;;;;;17.75;13.57;;;;;;;14.15;100.00;101347.22;5094087;28;20032;-71
2022/05/25 07:45:27;;;;;;;24.45;12.43;;;;;;;14.24;100.00;101336.69;5094637;28;20023;-71
2022/05/25 07:47:54;;;;;;;19.25;12.70;;;;;;;14.13;100.00;101339.25;5094373;28;20101;-71
2022/05/25 07:50:23;;;;;;;18.55;12.85;;;;;;;14.10;100.00;101338.34;5094537;28;20379;-70
2022/05/25 07:52:52;;;;;;;14.80;11.93;;;;;;;14.16;100.00;101339.28;5094496;28;20047;-72
2022/05/25 07:55:17;;;;;;;18.45;10.40;;;;;;;14.35;100.00;101344.72;5094665;28;20081;-72
2022/05/25 07:57:43;;;;;;;14.55;10.82;;;;;;;14.55;100.00;101330.78;5093253;28;20406;-72
2022/05/25 08:00:09;;;;;;;14.98;9.00;;;;;;;14.80;100.00;101343.38;5095259;28;20027;-72
2022/05/25 08:05:47;;;;;;;10.73;6.93;;;;;;;14.99;100.00;101339.09;5096824;28;20057;-71
2022/05/25 08:08:20;;;;;;;12.18;6.10;;;;;;;14.95;100.00;101328.47;5101587;28;20044;-71
2022/05/25 08:10:50;;;;;;;12.38;5.35;;;;;;;15.01;100.00;101336.44;5113137;28;20024;-71
2022/05/25 08:13:17;;;;;;;9.95;5.07;;;;;;;15.07;100.00;101339.13;5114271;28;20024;-71
2022/05/25 08:15:44;;;;;;;7.20;3.90;;;;;;;15.29;100.00;101340.13;5114171;28;20421;-71
2022/05/25 08:18:11;;;;;;;11.32;3.72;;;;;;;15.36;100.00;101343.69;5113967;28;20494;-71
2022/05/25 08:20:36;;;;;;;8.95;3.72;;;;;;;15.31;100.00;101341.03;5094325;28;20365;-71
2022/05/25 08:23:06;;;;;;;7.07;3.55;;;;;;;15.33;100.00;101341.03;5099185;28;20066;-71
2022/05/25 08:25:31;;;;;;;9.65;3.03;;;;;;;15.27;100.00;101352.47;5106293;28;20028;-71
2022/05/25 08:27:57;;;;;;;8.75;2.28;;;;;;;15.21;100.00;101347.16;5093722;28;20020;-71
2022/05/25 08:30:22;;;;;;;8.25;2.92;;;;;;;15.16;100.00;101336.50;5093702;28;20103;-70
2022/05/25 08:32:48;;;;;;;9.00;2.53;;;;;;;15.10;100.00;101347.09;5092421;28;20016;-71
2022/05/25 08:35:15;;;;;;;11.60;2.22;;;;;;;15.27;100.00;101343.66;5093652;28;20024;-71
2022/05/25 08:37:41;;;;;;;5.68;2.03;;;;;;;15.49;100.00;101334.94;5093596;28;20028;-71
2022/05/25 08:40:07;;;;;;;12.13;3.13;;;;;;;15.68;100.00;101327.91;5100808;28;20032;-71
2022/05/25 08:43:02;;;;;;;9.35;2.72;;;;;;;15.82;100.00;101329.78;5097969;28;20038;-71
2022/05/25 08:45:53;;;;;;;9.30;2.58;;;;;;;16.01;99.77;101344.84;5106741;28;20035;-71
2022/05/25 08:48:21;;;;;;;3.53;1.50;;;;;;;16.11;97.45;101335.13;5082184;28;20079;-71
2022/05/25 08:50:53;;;;;;;8.23;1.80;;;;;;;16.04;96.94;101333.34;5101826;28;20031;-71
2022/05/25 08:53:21;;;;;;;8.40;2.10;;;;;;;15.93;96.53;101335.97;5113884;28;20034;-72
2022/05/25 08:56:22;;;;;;;7.68;1.33;;;;;;;15.61;89.83;101331.44;5097201;28;20027;-71
2022/05/25 08:58:57;;;;;;;3.22;0.93;;;;;;;15.51;87.02;101343.75;5089111;28;20535;-71
2022/05/25 09:01:42;;;;;;;6.10;1.30;;;;;;;15.46;86.95;101344.63;5106951;28;20081;-71
2022/05/25 09:04:26;;;;;;;4.78;1.02;;;;;;;15.66;87.57;101342.06;5082455;28;20028;-70
2022/05/25 09:07:06;;;;;;;;;;;;;;;15.91;85.30;101355.44;5093395;28;20062;-71
2022/05/25 09:09:39;;;;;;;2.38;0.80;;;;;;;16.11;82.62;101343.06;5092762;28;20057;-71
2022/05/25 09:12:44;;;;;;;5.75;1.17;;;;;;;16.15;78.65;101334.22;5092746;28;20043;-70
2022/05/25 09:15:26;;;;;;;2.85;0.93;;;;;;;16.14;77.16;101353.72;5092795;28;20388;-71
2022/05/25 09:17:53;;;;;;;5.53;1.10;;;;;;;16.17;78.31;101382.06;5091896;28;20063;-71
2022/05/25 09:20:25;;;;;;;9.38;0.95;;;;;;;16.07;76.58;101365.19;5113345;28;20024;-71
2022/05/25 09:22:52;;;;;;;6.35;1.40;;;;;;;16.07;77.38;101385.56;5113353;28;20394;-70
2022/05/25 09:25:18;;;;;;;8.63;0.93;;;;;;;16.01;78.38;101375.81;5113201;28;20047;-70
2022/05/25 09:27:52;;;;;;;8.70;1.38;;;;;;;16.02;75.52;101372.28;5113125;28;20055;-71
2022/05/25 09:30:17;;;;;;;3.92;1.10;;;;;;;15.96;73.39;101374.91;5113506;28;20114;-71
2022/05/25 09:32:47;;;;;;;1.73;0.90;;;;;;;15.93;74.08;101364.28;5097323;28;20413;-71
2022/05/25 09:35:34;;;;;;;5.72;1.20;;;;;;;16.16;71.68;101380.28;5101816;28;20028;-70
2022/05/25 09:38:27;;;;;;;4.40;0.60;;;;;;;16.37;70.03;101374.09;5079628;28;20020;-69
2022/05/25 09:40:53;;;;;;;3.00;0.60;;;;;;;16.61;69.49;101380.31;5090735;28;20044;-70
2022/05/25 09:43:22;;;;;;;4.78;0.95;;;;;;;16.74;68.88;101378.53;5092907;28;20048;-69
2022/05/25 09:45:54;;;;;;;3.17;0.60;;;;;;;16.65;70.68;101392.72;5091679;28;20043;-70
2022/05/25 09:48:22;;;;;;;2.92;0.77;;;;;;;16.60;70.82;101392.69;5101105;28;20048;-69
2022/05/25 09:50:54;;;;;;;4.22;0.90;;;;;;;16.69;71.69;101391.84;5108375;28;20440;-71
2022/05/25 09:53:24;;;;;;;4.22;0.80;;;;;;;16.73;69.01;101398.94;5103043;28;20407;-70
2022/05/25 09:56:33;;;;;;;2.45;0.90;;;;;;;16.78;70.00;101385.63;5105290;28;20089;-69
2022/05/25 09:59:06;;;;;;;3.88;0.70;;;;;;;16.85;66.11;101401.56;5048617;28;20546;-70
2022/05/25 10:01:40;;;;;;;2.92;0.60;;;;;;;16.85;65.34;101393.59;5086359;28;20126;-69
2022/05/25 10:04:08;;;;;;;4.10;1.13;;;;;;;16.98;66.38;101404.25;5091545;28;20412;-70
2022/05/25 10:06:48;;;;;;;2.80;0.68;;;;;;;16.96;65.12;101408.69;5090970;28;20031;-70
2022/05/25 10:09:44;;;;;;;4.00;0.93;;;;;;;16.60;67.64;101413.09;5107648;28;20028;-69
2022/05/25 10:12:28;;;;;;;1.92;0.45;;;;;;;16.19;67.76;101401.50;5078280;28;20043;-70
2022/05/25 10:15:03;;;;;;;5.07;0.60;;;;;;;16.06;68.51;101400.63;5092287;28;20052;-70
2022/05/25 10:17:36;;;;;;;6.45;0.60;;;;;;;16.24;68.12;101409.50;5091047;28;20024;-70
2022/05/25 10:20:05;;;;;;;1.50;0.60;;;;;;;16.15;70.14;101415.66;5095617;28;20035;-71
2022/05/25 10:22:41;;;;;;;3.78;1.00;;;;;;;16.32;70.83;101408.63;5112547;27;20031;-71
2022/05/25 10:25:18;;;;;;;2.63;0.73;;;;;;;16.61;71.00;101420.19;5112614;28;20027;-70
2022/05/25 10:27:44;;;;;;;4.40;0.70;;;;;;;16.32;68.26;101407.75;5107932;28;20039;-71
2022/05/25 10:38:48;;;;;;;5.70;0.70;;;;;;;16.68;67.21;101406.00;5095012;28;20388;-72
2022/05/25 10:44:22;;;;;;;3.60;0.50;;;;;;;16.65;67.34;101400.69;5097723;28;20031;-71
2022/05/25 10:46:57;;;;;;;7.10;0.80;;;;;;;16.83;67.16;101406.03;5095145;28;20131;-71
2022/05/25 10:49:38;;;;;;;2.45;0.70;;;;;;;16.86;67.36;101419.31;5108006;28;20067;-71
2022/05/25 10:52:08;;;;;;;2.30;0.80;;;;;;;16.69;68.93;101429.03;5103532;28;20495;-71
2022/05/25 10:54:45;;;;;;;2.83;0.80;;;;;;;16.72;67.72;101410.44;5087710;28;20024;-69
2022/05/25 10:57:36;;;;;;;4.22;0.68;;;;;;;16.75;65.93;101407.75;5094315;28;20081;-71
2022/05/25 11:00:03;;;;;;;4.18;0.50;;;;;;;17.05;65.19;101414.03;5091650;28;20024;-72
2022/05/25 11:02:58;;;;;;;1.52;0.88;;;;;;;17.12;64.75;101412.19;5087653;28;20016;-73
2022/05/25 11:05:44;;;;;;;2.85;0.82;;;;;;;17.09;66.77;101407.81;5088124;28;20422;-72
2022/05/25 11:08:31;;;;;;;1.95;0.63;;;;;;;17.09;68.52;101412.22;5089728;28;20031;-71
2022/05/25 11:11:11;;;;;;;6.60;0.70;;;;;;;17.15;68.05;101401.59;5090297;28;20526;-72
2022/05/25 11:14:02;;;;;;;2.80;0.70;;;;;;;17.28;66.31;101402.44;5087612;28;20034;-72
2022/05/25 11:16:44;;;;;;;5.03;1.05;;;;;;;17.55;67.09;101395.28;5085673;28;20066;-72
2022/05/25 11:19:09;;;;;;;2.72;0.57;;;;;;;17.43;65.49;101404.16;5089421;28;20047;-73
2022/05/25 11:21:43;;;;;;;2.30;0.50;;;;;;;17.53;63.21;101404.13;5087136;28;21959;-73
2022/05/25 11:24:46;;;;;;;4.38;0.52;;;;;;;17.85;61.91;101405.78;5085672;28;20066;-73
2022/05/25 11:27:22;;;;;;;4.93;0.68;;;;;;;18.14;61.60;101391.47;5089116;28;20544;-72
2022/05/25 11:29:56;;;;;;;2.45;0.57;;;;;;;18.44;61.78;101400.16;5088142;28;20032;-72
2022/05/25 11:32:59;;;;;;;1.52;0.35;;;;;;;18.41;60.07;101388.63;5091050;28;20039;-71
2022/05/25 11:35:33;;;;;;;2.90;0.90;;;;;;;18.58;60.51;101391.16;5087361;28;20393;-71
2022/05/25 11:38:21;;;;;;;4.43;0.90;;;;;;;18.65;60.33;101401.78;5085361;28;20031;-71
2022/05/25 11:41:01;;;;;;;3.80;0.70;;;;;;;18.33;56.57;101388.69;5082219;28;20023;-71
2022/05/25 11:43:45;;;;;;;5.18;0.93;;;;;;;17.86;56.86;101380.94;5089006;28;20066;-72
2022/05/25 11:46:22;;;;;;;2.88;0.77;;;;;;;18.03;59.01;101377.34;5088307;28;20051;-71
2022/05/25 11:49:28;;;;;;;4.40;0.47;;;;;;;18.38;55.54;101373.56;5086805;28;20078;-72
2022/05/25 11:52:22;;;;;;;3.63;0.73;;;;;;;18.38;55.82;101384.22;5090588;28;20027;-73
2022/05/25 11:55:19;;;;;;;2.03;0.50;;;;;;;18.49;54.70;101381.47;5083195;28;20139;-72
2022/05/25 11:57:51;;;;;;;1.52;0.50;;;;;;;18.40;54.47;101371.75;5088503;28;20422;-71